sensor_id;sensor_type;location;lat;lon;timestamp;pressure;altitude;pressure_sealevel;temperature;humidity
20612;BME280;10465;42.686;23.364;2023-02-14T00:01:47;96391.63;;;5.14;59.37
20612;BME280;10465;42.686;23.364;2023-02-14T00:04:13;96401.78;;;5.23;59.30
20612;BME280;10465;42.686;23.364;2023-02-14T00:06:39;96392.63;;;5.25;59.37
20612;BME280;10465;42.686;23.364;2023-02-14T00:09:16;96396.38;;;5.29;58.97
20612;BME280;10465;42.686;23.364;2023-02-14T00:11:42;96387.94;;;5.27;59.04
20612;BME280;10465;42.686;23.364;2023-02-14T00:14:08;96387.03;;;5.21;58.88
20612;BME280;10465;42.686;23.364;2023-02-14T00:16:53;96404.25;;;5.29;59.22
20612;BME280;10465;42.686;23.364;2023-02-14T00:19:19;96401.09;;;5.27;58.91
20612;BME280;10465;42.686;23.364;2023-02-14T00:21:46;96400.75;;;5.24;58.98
20612;BME280;10465;42.686;23.364;2023-02-14T00:24:14;96395.84;;;5.27;58.70
20612;BME280;10465;42.686;23.364;2023-02-14T00:26:40;96381.31;;;5.25;58.95
20612;BME280;10465;42.686;23.364;2023-02-14T00:29:09;96386.91;;;5.28;58.72
20612;BME280;10465;42.686;23.364;2023-02-14T00:31:34;96379.97;;;5.22;58.68
20612;BME280;10465;42.686;23.364;2023-02-14T00:34:04;96392.50;;;5.32;58.75
20612;BME280;10465;42.686;23.364;2023-02-14T00:36:30;96382.53;;;5.34;59.03
20612;BME280;10465;42.686;23.364;2023-02-14T00:38:56;96396.25;;;5.36;59.20
20612;BME280;10465;42.686;23.364;2023-02-14T00:41:22;96384.28;;;5.28;58.98
20612;BME280;10465;42.686;23.364;2023-02-14T00:43:49;96381.41;;;5.30;59.55
20612;BME280;10465;42.686;23.364;2023-02-14T00:46:15;96383.72;;;5.26;59.49
20612;BME280;10465;42.686;23.364;2023-02-14T00:48:41;96382.00;;;5.32;59.52
20612;BME280;10465;42.686;23.364;2023-02-14T00:51:08;96372.75;;;5.29;59.60
20612;BME280;10465;42.686;23.364;2023-02-14T00:53:33;96356.00;;;5.18;59.69
20612;BME280;10465;42.686;23.364;2023-02-14T00:55:59;96370.44;;;5.33;59.44
20612;BME280;10465;42.686;23.364;2023-02-14T00:58:24;96340.72;;;5.15;59.36
20612;BME280;10465;42.686;23.364;2023-02-14T01:00:50;96362.56;;;5.33;59.76
20612;BME280;10465;42.686;23.364;2023-02-14T01:03:16;96368.94;;;5.37;59.78
20612;BME280;10465;42.686;23.364;2023-02-14T01:05:41;96356.78;;;5.31;59.72
20612;BME280;10465;42.686;23.364;2023-02-14T01:08:07;96348.44;;;5.22;59.73
20612;BME280;10465;42.686;23.364;2023-02-14T01:10:35;96356.88;;;5.36;59.42
20612;BME280;10465;42.686;23.364;2023-02-14T01:13:00;96317.06;;;4.99;60.27
20612;BME280;10465;42.686;23.364;2023-02-14T01:15:26;96364.41;;;5.32;59.89
20612;BME280;10465;42.686;23.364;2023-02-14T01:17:52;96302.41;;;4.74;60.40
20612;BME280;10465;42.686;23.364;2023-02-14T01:20:17;96352.72;;;5.11;60.08
20612;BME280;10465;42.686;23.364;2023-02-14T01:22:43;96354.56;;;5.11;60.08
20612;BME280;10465;42.686;23.364;2023-02-14T01:25:08;96328.09;;;5.01;60.21
20612;BME280;10465;42.686;23.364;2023-02-14T01:27:34;96327.28;;;5.12;60.59
20612;BME280;10465;42.686;23.364;2023-02-14T01:29:59;96338.53;;;5.24;59.70
20612;BME280;10465;42.686;23.364;2023-02-14T01:32:25;96326.47;;;5.11;59.87
20612;BME280;10465;42.686;23.364;2023-02-14T01:34:50;96334.06;;;5.25;60.35
20612;BME280;10465;42.686;23.364;2023-02-14T01:37:16;96322.81;;;5.12;60.11
20612;BME280;10465;42.686;23.364;2023-02-14T01:39:41;96319.81;;;5.20;60.14
20612;BME280;10465;42.686;23.364;2023-02-14T01:42:09;96311.94;;;5.20;59.60
20612;BME280;10465;42.686;23.364;2023-02-14T01:47:02;96295.69;;;5.07;59.90
20612;BME280;10465;42.686;23.364;2023-02-14T01:49:33;96289.72;;;5.11;59.99
20612;BME280;10465;42.686;23.364;2023-02-14T01:52:03;96309.88;;;5.23;60.04
20612;BME280;10465;42.686;23.364;2023-02-14T01:54:31;96290.34;;;5.18;60.01
20612;BME280;10465;42.686;23.364;2023-02-14T01:57:04;96304.47;;;5.29;59.49
20612;BME280;10465;42.686;23.364;2023-02-14T01:59:34;96306.56;;;5.27;59.48
20612;BME280;10465;42.686;23.364;2023-02-14T02:02:01;96304.94;;;5.26;59.42
20612;BME280;10465;42.686;23.364;2023-02-14T02:04:31;96307.81;;;5.25;59.60
20612;BME280;10465;42.686;23.364;2023-02-14T02:07:02;96279.31;;;5.16;60.07
20612;BME280;10465;42.686;23.364;2023-02-14T02:09:42;96307.53;;;5.09;59.91
20612;BME280;10465;42.686;23.364;2023-02-14T02:12:10;96295.34;;;5.03;60.51
20612;BME280;10465;42.686;23.364;2023-02-14T02:14:36;96301.91;;;5.17;60.19
20612;BME280;10465;42.686;23.364;2023-02-14T02:17:05;96303.03;;;5.21;59.61
20612;BME280;10465;42.686;23.364;2023-02-14T02:20:01;96307.81;;;5.25;60.11
20612;BME280;10465;42.686;23.364;2023-02-14T02:34:42;96288.78;;;5.17;60.23
20612;BME280;10465;42.686;23.364;2023-02-14T02:37:20;96281.81;;;5.23;59.79
20612;BME280;10465;42.686;23.364;2023-02-14T02:42:27;96265.72;;;5.19;60.10
20612;BME280;10465;42.686;23.364;2023-02-14T02:45:06;96261.81;;;5.22;59.51
20612;BME280;10465;42.686;23.364;2023-02-14T02:47:55;96266.84;;;5.24;60.11
20612;BME280;10465;42.686;23.364;2023-02-14T02:50:41;96260.38;;;5.14;59.89
20612;BME280;10465;42.686;23.364;2023-02-14T02:53:46;96253.06;;;5.16;59.82
20612;BME280;10465;42.686;23.364;2023-02-14T02:56:24;96272.22;;;5.17;59.90
20612;BME280;10465;42.686;23.364;2023-02-14T03:04:41;96273.28;;;5.16;59.69
20612;BME280;10465;42.686;23.364;2023-02-14T03:07:30;96273.47;;;5.14;60.20
20612;BME280;10465;42.686;23.364;2023-02-14T03:18:08;96262.03;;;5.04;59.99
20612;BME280;10465;42.686;23.364;2023-02-14T03:26:26;96234.78;;;4.93;60.36
20612;BME280;10465;42.686;23.364;2023-02-14T03:31:57;96238.75;;;5.07;59.81
20612;BME280;10465;42.686;23.364;2023-02-14T03:34:35;96248.91;;;5.04;60.52
20612;BME280;10465;42.686;23.364;2023-02-14T03:37:15;96189.50;;;4.69;60.23
20612;BME280;10465;42.686;23.364;2023-02-14T03:42:26;96244.44;;;5.04;60.30
20612;BME280;10465;42.686;23.364;2023-02-14T03:44:54;96185.53;;;4.66;59.66
20612;BME280;10465;42.686;23.364;2023-02-14T03:47:23;96222.06;;;4.85;60.49
20612;BME280;10465;42.686;23.364;2023-02-14T03:50:01;96241.00;;;4.87;60.28
20612;BME280;10465;42.686;23.364;2023-02-14T03:52:28;96238.00;;;4.95;60.50
20612;BME280;10465;42.686;23.364;2023-02-14T03:54:57;96208.13;;;4.84;60.08
20612;BME280;10465;42.686;23.364;2023-02-14T03:57:30;96230.53;;;5.04;60.18
20612;BME280;10465;42.686;23.364;2023-02-14T03:59:58;96205.72;;;4.94;60.10
20612;BME280;10465;42.686;23.364;2023-02-14T04:02:33;96218.16;;;4.87;60.09
20612;BME280;10465;42.686;23.364;2023-02-14T04:05:04;96213.59;;;4.94;60.24
20612;BME280;10465;42.686;23.364;2023-02-14T04:07:43;96193.25;;;4.73;60.42
20612;BME280;10465;42.686;23.364;2023-02-14T04:10:09;96206.56;;;4.83;60.64
20612;BME280;10465;42.686;23.364;2023-02-14T04:12:34;96212.34;;;4.85;60.55
20612;BME280;10465;42.686;23.364;2023-02-14T04:15:00;96211.97;;;4.93;60.10
20612;BME280;10465;42.686;23.364;2023-02-14T04:17:25;96206.78;;;4.82;60.41
20612;BME280;10465;42.686;23.364;2023-02-14T04:20:10;96195.06;;;4.72;60.03
20612;BME280;10465;42.686;23.364;2023-02-14T04:22:35;96147.63;;;4.45;60.02
20612;BME280;10465;42.686;23.364;2023-02-14T04:25:01;96228.88;;;4.86;60.49
20612;BME280;10465;42.686;23.364;2023-02-14T04:27:26;96224.59;;;4.80;60.49
20612;BME280;10465;42.686;23.364;2023-02-14T04:29:51;96219.63;;;4.66;60.99
20612;BME280;10465;42.686;23.364;2023-02-14T04:32:19;96213.22;;;4.74;60.68
20612;BME280;10465;42.686;23.364;2023-02-14T04:34:45;96202.84;;;4.67;60.72
20612;BME280;10465;42.686;23.364;2023-02-14T04:37:12;96178.13;;;4.63;60.10
20612;BME280;10465;42.686;23.364;2023-02-14T04:39:38;96156.06;;;4.47;59.86
20612;BME280;10465;42.686;23.364;2023-02-14T04:42:04;96181.88;;;4.67;60.23
20612;BME280;10465;42.686;23.364;2023-02-14T04:44:30;96195.22;;;4.66;60.63
20612;BME280;10465;42.686;23.364;2023-02-14T04:46:55;96188.00;;;4.73;60.11
20612;BME280;10465;42.686;23.364;2023-02-14T04:49:21;96082.84;;;4.01;60.29
20612;BME280;10465;42.686;23.364;2023-02-14T04:51:47;96192.81;;;4.64;60.74
20612;BME280;10465;42.686;23.364;2023-02-14T04:54:12;96162.19;;;4.53;60.04
20612;BME280;10465;42.686;23.364;2023-02-14T04:56:38;96187.56;;;4.64;60.46
20612;BME280;10465;42.686;23.364;2023-02-14T04:59:04;96179.97;;;4.63;60.43
20612;BME280;10465;42.686;23.364;2023-02-14T05:01:29;96185.34;;;4.56;60.26
20612;BME280;10465;42.686;23.364;2023-02-14T05:03:55;96200.28;;;4.56;60.61
20612;BME280;10465;42.686;23.364;2023-02-14T05:06:21;96179.34;;;4.44;60.51
20612;BME280;10465;42.686;23.364;2023-02-14T05:08:47;96171.88;;;4.53;60.02
20612;BME280;10465;42.686;23.364;2023-02-14T05:11:13;96200.34;;;4.61;60.14
20612;BME280;10465;42.686;23.364;2023-02-14T05:13:39;96196.03;;;4.66;60.34
20612;BME280;10465;42.686;23.364;2023-02-14T05:16:04;96170.38;;;4.57;60.05
20612;BME280;10465;42.686;23.364;2023-02-14T05:18:30;96200.56;;;4.71;59.68
20612;BME280;10465;42.686;23.364;2023-02-14T05:20:55;96196.09;;;4.71;60.09
20612;BME280;10465;42.686;23.364;2023-02-14T05:23:22;96199.84;;;4.76;59.64
20612;BME280;10465;42.686;23.364;2023-02-14T05:25:48;96186.25;;;4.62;59.85
20612;BME280;10465;42.686;23.364;2023-02-14T05:28:14;96190.16;;;4.47;60.27
20612;BME280;10465;42.686;23.364;2023-02-14T05:30:40;96105.88;;;3.87;61.12
20612;BME280;10465;42.686;23.364;2023-02-14T05:33:06;96191.69;;;4.32;61.28
20612;BME280;10465;42.686;23.364;2023-02-14T05:35:32;96195.16;;;4.49;62.32
20612;BME280;10465;42.686;23.364;2023-02-14T05:37:57;96172.69;;;4.53;60.28
20612;BME280;10465;42.686;23.364;2023-02-14T05:40:23;96152.06;;;4.45;59.96
20612;BME280;10465;42.686;23.364;2023-02-14T05:42:51;96187.38;;;4.66;60.34
20612;BME280;10465;42.686;23.364;2023-02-14T05:45:16;96184.19;;;4.81;60.13
20612;BME280;10465;42.686;23.364;2023-02-14T05:47:42;96165.59;;;4.25;61.13
20612;BME280;10465;42.686;23.364;2023-02-14T05:50:08;96156.56;;;4.33;60.41
20612;BME280;10465;42.686;23.364;2023-02-14T05:52:36;96183.13;;;4.65;60.82
20612;BME280;10465;42.686;23.364;2023-02-14T05:55:02;96178.53;;;4.72;60.54
20612;BME280;10465;42.686;23.364;2023-02-14T05:57:27;96195.31;;;4.71;60.51
20612;BME280;10465;42.686;23.364;2023-02-14T05:59:53;96163.50;;;4.67;59.93
20612;BME280;10465;42.686;23.364;2023-02-14T06:02:18;96190.75;;;4.95;59.48
20612;BME280;10465;42.686;23.364;2023-02-14T06:04:44;96181.97;;;4.89;59.28
20612;BME280;10465;42.686;23.364;2023-02-14T06:07:09;96192.09;;;4.97;59.14
20612;BME280;10465;42.686;23.364;2023-02-14T06:09:35;96186.31;;;4.95;59.05
20612;BME280;10465;42.686;23.364;2023-02-14T06:12:00;96184.41;;;5.08;59.18
20612;BME280;10465;42.686;23.364;2023-02-14T06:14:26;96206.28;;;5.13;58.81
20612;BME280;10465;42.686;23.364;2023-02-14T06:16:51;96207.78;;;5.09;59.22
20612;BME280;10465;42.686;23.364;2023-02-14T06:19:17;96199.50;;;5.17;59.01
20612;BME280;10465;42.686;23.364;2023-02-14T06:21:42;96191.88;;;5.16;58.73
20612;BME280;10465;42.686;23.364;2023-02-14T06:24:08;96179.38;;;5.06;58.86
20612;BME280;10465;42.686;23.364;2023-02-14T06:26:33;96181.78;;;5.25;58.73
20612;BME280;10465;42.686;23.364;2023-02-14T06:29:01;96199.84;;;5.38;58.69
20612;BME280;10465;42.686;23.364;2023-02-14T06:31:27;96199.75;;;5.50;58.26
20612;BME280;10465;42.686;23.364;2023-02-14T06:33:53;96191.56;;;5.29;58.80
20612;BME280;10465;42.686;23.364;2023-02-14T06:36:20;96196.59;;;5.31;59.02
20612;BME280;10465;42.686;23.364;2023-02-14T06:38:47;96202.31;;;5.28;58.87
20612;BME280;10465;42.686;23.364;2023-02-14T06:41:13;96202.72;;;5.19;59.56
20612;BME280;10465;42.686;23.364;2023-02-14T06:43:44;96199.31;;;5.19;59.12
20612;BME280;10465;42.686;23.364;2023-02-14T06:46:10;96193.16;;;5.30;59.78
20612;BME280;10465;42.686;23.364;2023-02-14T06:48:36;96188.47;;;5.32;60.06
20612;BME280;10465;42.686;23.364;2023-02-14T06:51:02;96186.09;;;5.48;59.14
20612;BME280;10465;42.686;23.364;2023-02-14T06:53:27;96178.63;;;5.23;59.40
20612;BME280;10465;42.686;23.364;2023-02-14T06:55:53;96185.44;;;5.57;59.23
20612;BME280;10465;42.686;23.364;2023-02-14T06:58:19;96165.81;;;5.43;58.75
20612;BME280;10465;42.686;23.364;2023-02-14T07:00:45;96186.28;;;5.63;58.48
20612;BME280;10465;42.686;23.364;2023-02-14T07:03:11;96176.09;;;5.66;58.75
20612;BME280;10465;42.686;23.364;2023-02-14T07:05:36;96144.53;;;5.44;58.48
20612;BME280;10465;42.686;23.364;2023-02-14T07:08:02;96163.00;;;5.50;59.45
20612;BME280;10465;42.686;23.364;2023-02-14T07:10:29;96158.09;;;5.36;60.20
20612;BME280;10465;42.686;23.364;2023-02-14T07:12:54;96128.16;;;5.20;59.96
20612;BME280;10465;42.686;23.364;2023-02-14T07:15:20;96156.31;;;5.42;60.31
20612;BME280;10465;42.686;23.364;2023-02-14T07:17:45;96181.56;;;5.43;60.68
20612;BME280;10465;42.686;23.364;2023-02-14T07:20:11;96175.00;;;5.45;61.36
20612;BME280;10465;42.686;23.364;2023-02-14T07:22:37;96180.13;;;5.52;61.03
20612;BME280;10465;42.686;23.364;2023-02-14T07:25:03;96164.34;;;5.52;60.42
20612;BME280;10465;42.686;23.364;2023-02-14T07:27:29;96169.00;;;5.67;60.61
20612;BME280;10465;42.686;23.364;2023-02-14T07:29:55;96181.63;;;5.48;61.93
20612;BME280;10465;42.686;23.364;2023-02-14T07:32:20;96123.72;;;5.04;62.19
20612;BME280;10465;42.686;23.364;2023-02-14T07:34:47;96139.72;;;5.19;62.79
20612;BME280;10465;42.686;23.364;2023-02-14T07:37:13;96180.59;;;5.49;63.12
20612;BME280;10465;42.686;23.364;2023-02-14T07:39:38;96188.16;;;5.45;63.78
20612;BME280;10465;42.686;23.364;2023-02-14T07:42:04;96149.88;;;5.50;62.83
20612;BME280;10465;42.686;23.364;2023-02-14T07:44:29;96178.31;;;5.75;63.20
20612;BME280;10465;42.686;23.364;2023-02-14T07:46:54;95938.66;;;3.95;63.60
20612;BME280;10465;42.686;23.364;2023-02-14T07:49:20;96189.50;;;5.48;64.44
20612;BME280;10465;42.686;23.364;2023-02-14T07:51:46;96201.59;;;5.32;64.97
20612;BME280;10465;42.686;23.364;2023-02-14T07:54:11;96199.06;;;5.37;65.51
20612;BME280;10465;42.686;23.364;2023-02-14T07:56:37;96199.13;;;5.26;66.03
20612;BME280;10465;42.686;23.364;2023-02-14T07:59:02;96205.81;;;5.16;65.91
20612;BME280;10465;42.686;23.364;2023-02-14T08:01:28;96198.41;;;5.13;66.73
20612;BME280;10465;42.686;23.364;2023-02-14T08:03:53;96207.31;;;5.12;67.51
20612;BME280;10465;42.686;23.364;2023-02-14T08:06:19;96194.91;;;5.08;67.45
20612;BME280;10465;42.686;23.364;2023-02-14T08:08:44;96218.00;;;5.23;66.78
20612;BME280;10465;42.686;23.364;2023-02-14T08:11:10;96204.84;;;5.06;67.21
20612;BME280;10465;42.686;23.364;2023-02-14T08:13:35;96218.22;;;5.21;66.89
20612;BME280;10465;42.686;23.364;2023-02-14T08:16:01;96225.50;;;5.31;66.94
20612;BME280;10465;42.686;23.364;2023-02-14T08:18:32;96215.28;;;5.17;67.68
20612;BME280;10465;42.686;23.364;2023-02-14T08:20:58;96200.47;;;5.11;67.23
20612;BME280;10465;42.686;23.364;2023-02-14T08:23:23;96222.47;;;5.39;67.26
20612;BME280;10465;42.686;23.364;2023-02-14T08:25:51;96228.00;;;5.42;66.84
20612;BME280;10465;42.686;23.364;2023-02-14T08:28:17;96209.53;;;5.04;67.77
20612;BME280;10465;42.686;23.364;2023-02-14T08:30:43;96225.22;;;5.15;68.24
20612;BME280;10465;42.686;23.364;2023-02-14T08:33:09;96210.75;;;5.30;68.02
20612;BME280;10465;42.686;23.364;2023-02-14T08:35:35;96198.72;;;5.17;67.19
20612;BME280;10465;42.686;23.364;2023-02-14T08:38:01;96207.31;;;5.29;67.47
20612;BME280;10465;42.686;23.364;2023-02-14T08:40:26;96205.34;;;5.36;67.04
20612;BME280;10465;42.686;23.364;2023-02-14T08:42:52;96219.13;;;5.43;66.70
20612;BME280;10465;42.686;23.364;2023-02-14T08:45:18;96234.38;;;5.30;66.89
20612;BME280;10465;42.686;23.364;2023-02-14T08:47:44;96206.19;;;5.08;67.52
20612;BME280;10465;42.686;23.364;2023-02-14T08:50:13;96227.00;;;5.27;67.13
20612;BME280;10465;42.686;23.364;2023-02-14T08:52:40;96205.31;;;5.03;67.94
20612;BME280;10465;42.686;23.364;2023-02-14T08:55:06;96235.38;;;4.95;69.21
20612;BME280;10465;42.686;23.364;2023-02-14T08:57:32;96205.94;;;4.93;68.71
20612;BME280;10465;42.686;23.364;2023-02-14T08:59:58;96226.06;;;5.04;69.32
20612;BME280;10465;42.686;23.364;2023-02-14T09:02:23;96219.59;;;4.78;69.66
20612;BME280;10465;42.686;23.364;2023-02-14T09:04:48;96212.69;;;4.89;69.70
20612;BME280;10465;42.686;23.364;2023-02-14T09:07:14;96211.19;;;5.10;69.78
20612;BME280;10465;42.686;23.364;2023-02-14T09:09:40;96213.09;;;4.97;69.77
20612;BME280;10465;42.686;23.364;2023-02-14T09:12:07;96217.91;;;5.17;68.79
20612;BME280;10465;42.686;23.364;2023-02-14T09:14:41;96204.78;;;5.34;68.78
20612;BME280;10465;42.686;23.364;2023-02-14T09:17:08;96209.16;;;5.45;68.10
20612;BME280;10465;42.686;23.364;2023-02-14T09:19:35;96199.19;;;5.14;68.64
20612;BME280;10465;42.686;23.364;2023-02-14T09:22:02;96198.00;;;5.21;68.25
20612;BME280;10465;42.686;23.364;2023-02-14T09:24:32;96200.06;;;5.03;69.19
20612;BME280;10465;42.686;23.364;2023-02-14T09:26:58;96197.06;;;5.11;68.45
20612;BME280;10465;42.686;23.364;2023-02-14T09:29:24;96216.72;;;5.25;68.36
20612;BME280;10465;42.686;23.364;2023-02-14T09:31:54;96206.28;;;5.30;67.98
20612;BME280;10465;42.686;23.364;2023-02-14T09:34:20;96205.41;;;5.41;67.73
20612;BME280;10465;42.686;23.364;2023-02-14T09:36:46;96210.28;;;5.33;67.71
20612;BME280;10465;42.686;23.364;2023-02-14T09:39:30;96192.44;;;5.18;67.83
20612;BME280;10465;42.686;23.364;2023-02-14T09:44:46;96179.63;;;5.05;68.05
20612;BME280;10465;42.686;23.364;2023-02-14T09:47:37;96191.56;;;5.29;67.58
20612;BME280;10465;42.686;23.364;2023-02-14T09:50:15;96124.91;;;4.80;68.02
20612;BME280;10465;42.686;23.364;2023-02-14T09:52:42;96197.22;;;5.21;67.85
20612;BME280;10465;42.686;23.364;2023-02-14T09:55:14;96184.66;;;5.23;68.12
20612;BME280;10465;42.686;23.364;2023-02-14T09:57:48;96187.38;;;5.28;67.85
20612;BME280;10465;42.686;23.364;2023-02-14T10:00:32;96167.28;;;5.05;68.32
20612;BME280;10465;42.686;23.364;2023-02-14T10:11:04;96170.09;;;4.99;68.31
20612;BME280;10465;42.686;23.364;2023-02-14T10:13:41;96194.53;;;5.16;68.48
20612;BME280;10465;42.686;23.364;2023-02-14T10:16:30;96167.47;;;4.99;69.02
20612;BME280;10465;42.686;23.364;2023-02-14T10:19:03;96176.22;;;5.21;67.93
20612;BME280;10465;42.686;23.364;2023-02-14T10:22:00;96179.47;;;5.11;67.79
20612;BME280;10465;42.686;23.364;2023-02-14T10:24:29;96173.25;;;4.84;69.07
20612;BME280;10465;42.686;23.364;2023-02-14T10:27:02;96171.16;;;4.86;69.63
20612;BME280;10465;42.686;23.364;2023-02-14T10:29:28;96136.44;;;4.79;68.35
20612;BME280;10465;42.686;23.364;2023-02-14T10:31:59;96158.69;;;5.10;67.89
20612;BME280;10465;42.686;23.364;2023-02-14T10:43:00;96160.84;;;5.13;67.50
20612;BME280;10465;42.686;23.364;2023-02-14T10:51:34;96167.53;;;5.20;67.12
20612;BME280;10465;42.686;23.364;2023-02-14T10:59:33;96154.97;;;5.06;67.72
20612;BME280;10465;42.686;23.364;2023-02-14T11:02:00;96135.00;;;4.88;67.98
20612;BME280;10465;42.686;23.364;2023-02-14T11:04:26;96155.84;;;4.94;68.11
20612;BME280;10465;42.686;23.364;2023-02-14T11:06:54;96152.97;;;5.13;68.10
20612;BME280;10465;42.686;23.364;2023-02-14T11:09:19;96157.38;;;5.24;66.77
20612;BME280;10465;42.686;23.364;2023-02-14T11:11:57;96152.13;;;5.07;66.35
20612;BME280;10465;42.686;23.364;2023-02-14T11:14:32;96152.59;;;5.21;67.12
20612;BME280;10465;42.686;23.364;2023-02-14T11:16:59;96150.69;;;5.16;66.46
20612;BME280;10465;42.686;23.364;2023-02-14T11:19:29;96157.44;;;5.29;65.19
20612;BME280;10465;42.686;23.364;2023-02-14T11:21:57;96148.69;;;5.07;65.96
20612;BME280;10465;42.686;23.364;2023-02-14T11:24:34;96152.72;;;5.14;65.70
20612;BME280;10465;42.686;23.364;2023-02-14T11:31:52;96129.59;;;5.28;64.52
20612;BME280;10465;42.686;23.364;2023-02-14T11:34:45;96118.31;;;5.11;64.84
20612;BME280;10465;42.686;23.364;2023-02-14T11:37:24;96127.22;;;5.27;64.24
20612;BME280;10465;42.686;23.364;2023-02-14T11:39:52;96139.63;;;5.31;64.00
20612;BME280;10465;42.686;23.364;2023-02-14T11:45:00;96111.63;;;5.20;64.16
20612;BME280;10465;42.686;23.364;2023-02-14T11:47:28;96123.22;;;5.41;63.42
20612;BME280;10465;42.686;23.364;2023-02-14T11:50:14;96117.44;;;5.39;63.44
20612;BME280;10465;42.686;23.364;2023-02-14T11:52:52;96109.78;;;5.37;63.42
20612;BME280;10465;42.686;23.364;2023-02-14T11:55:30;96101.66;;;5.39;62.41
20612;BME280;10465;42.686;23.364;2023-02-14T11:58:00;96103.41;;;5.33;62.18
20612;BME280;10465;42.686;23.364;2023-02-14T12:00:27;96103.06;;;5.46;61.91
20612;BME280;10465;42.686;23.364;2023-02-14T12:02:56;96101.78;;;5.49;62.01
20612;BME280;10465;42.686;23.364;2023-02-14T12:05:29;96101.78;;;5.49;62.02
20612;BME280;10465;42.686;23.364;2023-02-14T12:08:05;96098.28;;;5.60;61.67
20612;BME280;10465;42.686;23.364;2023-02-14T12:10:36;96092.81;;;5.67;61.20
20612;BME280;10465;42.686;23.364;2023-02-14T12:13:25;96084.78;;;5.74;61.18
20612;BME280;10465;42.686;23.364;2023-02-14T12:15:51;96084.78;;;5.74;61.26
20612;BME280;10465;42.686;23.364;2023-02-14T12:18:36;96059.91;;;5.81;60.26
20612;BME280;10465;42.686;23.364;2023-02-14T12:21:18;96088.78;;;5.98;60.09
20612;BME280;10465;42.686;23.364;2023-02-14T12:26:34;96080.31;;;5.74;60.33
20612;BME280;10465;42.686;23.364;2023-02-14T12:29:36;96093.06;;;6.04;60.73
20612;BME280;10465;42.686;23.364;2023-02-14T12:32:23;96070.25;;;5.88;60.25
20612;BME280;10465;42.686;23.364;2023-02-14T12:34:49;96060.66;;;5.99;60.70
20612;BME280;10465;42.686;23.364;2023-02-14T12:39:56;96069.38;;;6.26;59.41
20612;BME280;10465;42.686;23.364;2023-02-14T12:42:38;96073.94;;;6.63;58.61
20612;BME280;10465;42.686;23.364;2023-02-14T12:51:06;96065.88;;;6.75;58.27
20612;BME280;10465;42.686;23.364;2023-02-14T12:56:25;96060.81;;;6.68;57.82
20612;BME280;10465;42.686;23.364;2023-02-14T13:06:47;96070.16;;;6.54;58.80
20612;BME280;10465;42.686;23.364;2023-02-14T13:12:12;96069.44;;;6.63;58.58
20612;BME280;10465;42.686;23.364;2023-02-14T13:22:27;96053.94;;;6.35;60.17
20612;BME280;10465;42.686;23.364;2023-02-14T13:25:02;96033.63;;;6.03;60.84
20612;BME280;10465;42.686;23.364;2023-02-14T13:27:33;96056.00;;;6.06;60.94
20612;BME280;10465;42.686;23.364;2023-02-14T13:32:49;96055.03;;;6.12;61.83
20612;BME280;10465;42.686;23.364;2023-02-14T13:35:19;96000.16;;;5.72;61.61
20612;BME280;10465;42.686;23.364;2023-02-14T13:37:50;96040.34;;;6.16;61.36
20612;BME280;10465;42.686;23.364;2023-02-14T13:40:21;96059.16;;;6.30;61.08
20612;BME280;10465;42.686;23.364;2023-02-14T13:42:54;95991.59;;;5.81;61.55
20612;BME280;10465;42.686;23.364;2023-02-14T13:48:14;96018.28;;;5.95;61.64
20612;BME280;10465;42.686;23.364;2023-02-14T13:50:59;96058.25;;;6.19;61.64
20612;BME280;10465;42.686;23.364;2023-02-14T13:58:58;96069.56;;;6.19;61.91
20612;BME280;10465;42.686;23.364;2023-02-14T14:01:44;96057.28;;;6.03;62.11
20612;BME280;10465;42.686;23.364;2023-02-14T14:20:47;96067.19;;;5.52;64.48
20612;BME280;10465;42.686;23.364;2023-02-14T14:23:42;96035.28;;;5.65;63.23
20612;BME280;10465;42.686;23.364;2023-02-14T14:26:39;96038.91;;;5.59;63.18
20612;BME280;10465;42.686;23.364;2023-02-14T14:29:15;96054.41;;;5.83;63.04
20612;BME280;10465;42.686;23.364;2023-02-14T14:31:42;96056.84;;;5.89;63.07
20612;BME280;10465;42.686;23.364;2023-02-14T14:34:15;96050.34;;;5.92;63.04
20612;BME280;10465;42.686;23.364;2023-02-14T14:36:41;95928.53;;;5.32;62.88
20612;BME280;10465;42.686;23.364;2023-02-14T14:39:08;96041.47;;;5.98;62.78
20612;BME280;10465;42.686;23.364;2023-02-14T14:41:34;96036.63;;;5.90;62.82
20612;BME280;10465;42.686;23.364;2023-02-14T14:44:00;96027.03;;;5.79;63.58
20612;BME280;10465;42.686;23.364;2023-02-14T14:46:26;96023.44;;;5.85;63.13
20612;BME280;10465;42.686;23.364;2023-02-14T14:48:53;96010.94;;;5.75;63.59
20612;BME280;10465;42.686;23.364;2023-02-14T14:51:28;96039.03;;;5.91;63.25
20612;BME280;10465;42.686;23.364;2023-02-14T14:58:45;96037.88;;;6.04;62.61
20612;BME280;10465;42.686;23.364;2023-02-14T15:01:13;96050.91;;;6.21;62.27
20612;BME280;10465;42.686;23.364;2023-02-14T15:03:51;96017.03;;;5.98;62.32
20612;BME280;10465;42.686;23.364;2023-02-14T15:06:19;96040.69;;;5.98;62.60
20612;BME280;10465;42.686;23.364;2023-02-14T15:08:46;96043.88;;;6.00;62.20
20612;BME280;10465;42.686;23.364;2023-02-14T15:14:05;96051.53;;;6.06;62.08
20612;BME280;10465;42.686;23.364;2023-02-14T15:17:04;96053.69;;;6.09;62.18
20612;BME280;10465;42.686;23.364;2023-02-14T15:19:37;96028.81;;;5.95;61.88
20612;BME280;10465;42.686;23.364;2023-02-14T15:24:45;96055.53;;;6.09;62.38
20612;BME280;10465;42.686;23.364;2023-02-14T15:27:14;96058.47;;;6.12;62.10
20612;BME280;10465;42.686;23.364;2023-02-14T15:29:41;96039.94;;;5.80;62.84
20612;BME280;10465;42.686;23.364;2023-02-14T15:32:08;96047.13;;;5.90;62.34
20612;BME280;10465;42.686;23.364;2023-02-14T15:34:34;96050.97;;;5.82;62.52
20612;BME280;10465;42.686;23.364;2023-02-14T15:37:01;96065.06;;;5.93;62.23
20612;BME280;10465;42.686;23.364;2023-02-14T15:39:42;96052.06;;;5.86;62.42
20612;BME280;10465;42.686;23.364;2023-02-14T15:42:29;96064.69;;;5.84;62.55
20612;BME280;10465;42.686;23.364;2023-02-14T15:47:55;96064.28;;;5.92;62.92